Portada
METAR-TAF:

METAR-TAF

Aeroports :

El Borma, Tunísia

latitud: 31-41N, longitud: 009-10E, altitud: 258 m

Observació

L'informe es va fer fa 12 hores i 19 minuts, a les 14:00 UTC
Vent 6 kt del Est
Temperatura 14°C
Humitat 51%
Pressió 1015 hPa
Visibilitat 10 km o més
sense núvols per sota de 1500 mi sense presència de cumulonimbus.

METAR: DTTR 181400Z 10006KT CAVOK 14/04 Q1015 NOSIG

Hora: 03:19 (02:19 UTC)


TAF: manca

Observacions i pronòstics meteorològics de més de 4000 aeroports (METAR i TAF).

Les estacions disponibles són els punts grocs i vermells al mapa.

Posi el ratolí al punt desitjat per veure el nom de l'estació.

Feu clic per veure les observacions i els pronòstics meteorològics.

Per canviar el mapa: feu clic els botons verds amb una creu de color negre per apropar; al botó verd amb un guió per allunyar la imatge; o en les fletxes verdes per a mapes adjacents.


METAR-TAF: